createdAt,value
2023-01-13T00:00:57.530Z,2.300
2023-01-13T00:01:57.037Z,1.700
2023-01-13T00:02:57.670Z,2.000
2023-01-13T00:03:57.158Z,0.700
2023-01-13T00:04:57.804Z,1.900
2023-01-13T00:05:57.612Z,1.300
2023-01-13T00:06:57.244Z,1.300
2023-01-13T00:07:56.763Z,1.100
2023-01-13T00:08:57.265Z,0.900
2023-01-13T00:09:56.804Z,0.900
2023-01-13T00:10:57.301Z,0.700
2023-01-13T00:11:56.787Z,0.700
2023-01-13T00:12:57.372Z,1.400
2023-01-13T00:13:56.948Z,1.300
2023-01-13T00:14:57.373Z,1.400
2023-01-13T00:15:57.026Z,1.300
2023-01-13T00:16:57.617Z,1.100
2023-01-13T00:17:57.053Z,0.800
2023-01-13T00:18:57.527Z,1.500
2023-01-13T00:19:56.974Z,0.900
2023-01-13T00:20:57.485Z,0.800
2023-01-13T00:21:56.969Z,0.800
2023-01-13T00:22:57.422Z,1.000
2023-01-13T00:23:56.975Z,0.800
2023-01-13T00:24:57.403Z,0.800
2023-01-13T00:25:56.841Z,0.900
2023-01-13T00:26:57.308Z,0.800
2023-01-13T00:27:56.745Z,0.700
2023-01-13T00:28:57.234Z,1.100
2023-01-13T00:29:57.682Z,0.900
2023-01-13T00:30:57.225Z,0.900
2023-01-13T00:31:56.889Z,0.600
2023-01-13T00:32:57.312Z,0.800
2023-01-13T00:33:56.765Z,1.000
2023-01-13T00:34:57.227Z,1.000
2023-01-13T00:35:57.678Z,0.900
2023-01-13T00:36:57.108Z,0.900
2023-01-13T00:37:57.560Z,0.900
2023-01-13T00:38:57.044Z,1.000
2023-01-13T00:39:57.646Z,1.000
2023-01-13T00:40:57.250Z,0.800
2023-01-13T00:41:56.695Z,0.800
2023-01-13T00:42:57.186Z,0.800
2023-01-13T00:43:57.712Z,0.800
2023-01-13T00:44:57.218Z,0.800
2023-01-13T00:45:56.721Z,0.800
2023-01-13T00:46:58.632Z,1.000
2023-01-13T00:47:57.045Z,1.400
2023-01-13T00:48:57.539Z,0.700
2023-01-13T00:49:57.049Z,1.100
2023-01-13T00:50:57.663Z,1.100
2023-01-13T00:51:58.037Z,0.800
2023-01-13T00:52:58.579Z,0.900
2023-01-13T00:53:57.219Z,1.000
2023-01-13T00:54:56.797Z,0.900
2023-01-13T00:55:57.317Z,1.100
2023-01-13T00:57:01.756Z,0.800
2023-01-13T00:57:57.224Z,1.100
2023-01-13T00:58:57.707Z,0.900
2023-01-13T00:59:57.142Z,1.000
2023-01-13T01:00:57.885Z,1.000
2023-01-13T01:01:58.202Z,1.000
2023-01-13T01:02:58.777Z,0.900
2023-01-13T01:03:57.369Z,0.800
2023-01-13T01:04:56.885Z,0.900
2023-01-13T01:05:57.377Z,1.000
2023-01-13T01:06:56.835Z,0.900
2023-01-13T01:07:57.348Z,0.700
2023-01-13T01:08:56.857Z,0.900
2023-01-13T01:09:57.353Z,0.800
2023-01-13T01:10:56.895Z,0.700
2023-01-13T01:11:57.398Z,0.900
2023-01-13T01:12:56.917Z,1.000
2023-01-13T01:13:57.556Z,0.900
2023-01-13T01:14:57.077Z,0.900
2023-01-13T01:15:57.731Z,0.800
2023-01-13T01:16:57.416Z,0.900
2023-01-13T01:17:56.950Z,1.000
2023-01-13T01:18:57.426Z,0.800
2023-01-13T01:19:56.981Z,0.700
2023-01-13T01:20:57.585Z,0.800
2023-01-13T01:21:57.090Z,0.900
2023-01-13T01:22:57.601Z,0.900
2023-01-13T01:23:57.109Z,0.900
2023-01-13T01:24:57.618Z,0.900
2023-01-13T01:25:57.133Z,0.800
2023-01-13T01:26:57.605Z,0.800
2023-01-13T01:27:57.126Z,0.900
2023-01-13T01:28:57.670Z,0.700
2023-01-13T01:29:57.141Z,0.800
2023-01-13T01:30:57.573Z,1.000
2023-01-13T01:31:57.350Z,1.000
2023-01-13T01:32:56.857Z,0.800
2023-01-13T01:33:57.325Z,0.700
2023-01-13T01:34:56.846Z,1.000
2023-01-13T01:35:57.233Z,0.800
2023-01-13T01:36:56.835Z,0.900
2023-01-13T01:37:57.245Z,0.800
2023-01-13T01:38:57.754Z,0.700
2023-01-13T01:39:57.417Z,0.800
2023-01-13T01:40:57.099Z,0.900
2023-01-13T01:41:57.578Z,0.700
2023-01-13T01:42:57.307Z,0.900
2023-01-13T01:43:56.889Z,0.900
2023-01-13T01:44:57.427Z,0.900
2023-01-13T01:45:57.025Z,0.700
2023-01-13T01:46:57.658Z,0.800
2023-01-13T01:47:57.460Z,0.700
2023-01-13T01:48:57.158Z,0.900
2023-01-13T01:49:56.760Z,0.800
2023-01-13T01:50:57.269Z,0.600
2023-01-13T01:51:56.745Z,0.800
2023-01-13T01:52:57.222Z,0.900
2023-01-13T01:53:56.913Z,0.900
2023-01-13T01:54:57.379Z,0.700
2023-01-13T01:55:56.926Z,0.800
2023-01-13T01:56:57.422Z,0.800
2023-01-13T01:57:57.065Z,0.700
2023-01-13T01:58:57.586Z,0.800
2023-01-13T01:59:56.989Z,0.800
2023-01-13T02:00:57.717Z,0.900
2023-01-13T02:01:57.784Z,0.700
2023-01-13T02:02:57.935Z,0.800
2023-01-13T02:03:57.436Z,0.900
2023-01-13T02:04:56.909Z,0.700
2023-01-13T02:05:57.373Z,0.600
2023-01-13T02:06:56.788Z,0.700
2023-01-13T02:07:57.421Z,0.800
2023-01-13T02:08:56.979Z,0.700
2023-01-13T02:09:57.485Z,0.800
2023-01-13T02:10:57.019Z,0.900
2023-01-13T02:11:57.422Z,0.700
2023-01-13T02:12:57.044Z,0.800
2023-01-13T02:13:57.658Z,1.000
2023-01-13T02:14:57.397Z,0.700
2023-01-13T02:15:57.172Z,0.700
2023-01-13T02:16:57.816Z,0.800
2023-01-13T02:17:57.452Z,0.800
2023-01-13T02:18:57.111Z,1.400
2023-01-13T02:19:57.579Z,0.700
2023-01-13T02:20:57.113Z,0.800
2023-01-13T02:21:57.669Z,0.900
2023-01-13T02:22:57.144Z,0.900
2023-01-13T02:23:57.720Z,0.700
2023-01-13T02:24:57.471Z,0.800
2023-01-13T02:25:57.403Z,0.800
2023-01-13T02:26:57.599Z,1.000
2023-01-13T02:27:57.815Z,0.800
2023-01-13T02:28:57.388Z,0.600
2023-01-13T02:29:57.091Z,0.800
2023-01-13T02:30:57.746Z,1.000
2023-01-13T02:31:58.381Z,0.600
2023-01-13T02:32:57.164Z,0.800
2023-01-13T02:33:57.604Z,1.000
2023-01-13T02:34:57.150Z,0.600
2023-01-13T02:35:56.765Z,0.900
2023-01-13T02:36:57.297Z,0.800
2023-01-13T02:37:56.788Z,0.800
2023-01-13T02:38:57.241Z,0.700
2023-01-13T02:39:56.816Z,0.900
2023-01-13T02:40:57.305Z,0.800
2023-01-13T02:41:56.768Z,0.800
2023-01-13T02:42:57.318Z,0.800
2023-01-13T02:43:56.818Z,0.600
2023-01-13T02:44:57.352Z,0.700
2023-01-13T02:45:56.895Z,0.400
2023-01-13T02:46:56.887Z,0.800
2023-01-13T02:47:57.461Z,0.800
2023-01-13T02:48:57.136Z,0.800
2023-01-13T02:49:57.617Z,0.900
2023-01-13T02:50:58.149Z,0.600
2023-01-13T02:51:57.737Z,0.600
2023-01-13T02:52:57.359Z,0.900
2023-01-13T02:53:56.875Z,0.800
2023-01-13T02:54:57.383Z,0.500
2023-01-13T02:55:56.930Z,0.900
2023-01-13T02:56:57.520Z,0.700
2023-01-13T02:57:57.029Z,0.500
2023-01-13T02:58:57.462Z,0.700
2023-01-13T02:59:57.007Z,0.700
2023-01-13T03:00:58.039Z,0.800
2023-01-13T03:01:58.319Z,0.800
2023-01-13T03:02:57.681Z,0.700
2023-01-13T03:03:57.262Z,0.600
2023-01-13T03:04:56.834Z,0.800
2023-01-13T03:05:57.423Z,0.800
2023-01-13T03:06:56.974Z,0.700
2023-01-13T03:07:57.749Z,0.700
2023-01-13T03:08:57.759Z,0.700
2023-01-13T03:09:57.410Z,0.600
2023-01-13T03:10:59.409Z,0.700
2023-01-13T03:11:57.009Z,0.700
2023-01-13T03:12:57.599Z,0.800
2023-01-13T03:13:57.372Z,0.600
2023-01-13T03:14:56.960Z,0.600
2023-01-13T03:15:57.611Z,0.600
2023-01-13T03:16:57.357Z,0.600
2023-01-13T03:17:56.921Z,0.700
2023-01-13T03:18:57.568Z,0.700
2023-01-13T03:19:57.081Z,0.700
2023-01-13T03:20:57.700Z,0.800
2023-01-13T03:21:57.260Z,0.900
2023-01-13T03:22:57.187Z,0.800
2023-01-13T03:24:00.641Z,0.900
2023-01-13T03:24:58.882Z,0.800
2023-01-13T03:25:57.540Z,0.700
2023-01-13T03:26:57.165Z,0.700
2023-01-13T03:27:57.663Z,0.800
2023-01-13T03:28:57.527Z,0.600
2023-01-13T03:29:57.260Z,0.800
2023-01-13T03:30:58.194Z,0.700
2023-01-13T03:31:57.822Z,0.700
2023-01-13T03:32:57.334Z,0.600
2023-01-13T03:33:56.826Z,0.800
2023-01-13T03:34:57.416Z,0.700
2023-01-13T03:35:57.129Z,0.600
2023-01-13T03:36:57.647Z,0.700
2023-01-13T03:37:57.171Z,0.600
2023-01-13T03:38:57.757Z,0.800
2023-01-13T03:39:57.347Z,0.700
2023-01-13T03:40:56.977Z,0.500
2023-01-13T03:41:57.542Z,0.600
2023-01-13T03:42:57.227Z,0.600
2023-01-13T03:43:59.836Z,0.800
2023-01-13T03:44:57.593Z,0.700
2023-01-13T03:45:57.149Z,0.600
2023-01-13T03:46:56.851Z,0.500
2023-01-13T03:47:57.573Z,0.600
2023-01-13T03:48:57.171Z,0.700
2023-01-13T03:49:57.777Z,0.600
2023-01-13T03:50:57.411Z,0.600
2023-01-13T03:51:57.043Z,0.600
2023-01-13T03:52:57.695Z,0.800
2023-01-13T03:53:57.265Z,0.900
2023-01-13T03:54:56.756Z,0.700
2023-01-13T03:55:57.390Z,0.600
2023-01-13T03:56:56.829Z,0.500
2023-01-13T03:57:57.714Z,0.800
2023-01-13T03:58:57.387Z,0.600
2023-01-13T03:59:56.960Z,0.700
2023-01-13T04:00:57.707Z,0.700
2023-01-13T04:01:57.776Z,0.900
2023-01-13T04:02:57.694Z,0.900
2023-01-13T04:03:57.663Z,0.700
2023-01-13T04:04:57.546Z,0.700
2023-01-13T04:05:57.155Z,0.600
2023-01-13T04:06:57.927Z,0.700
2023-01-13T04:07:57.612Z,0.700
2023-01-13T04:08:57.674Z,0.800
2023-01-13T04:09:57.343Z,0.600
2023-01-13T04:10:56.937Z,0.700
2023-01-13T04:11:57.544Z,0.500
2023-01-13T04:12:57.177Z,0.500
2023-01-13T04:13:57.000Z,0.600
2023-01-13T04:14:57.593Z,0.400
2023-01-13T04:15:57.499Z,0.700
2023-01-13T04:16:57.435Z,0.700
2023-01-13T04:17:57.092Z,0.700
2023-01-13T04:18:57.708Z,0.700
2023-01-13T04:19:57.283Z,0.700
2023-01-13T04:20:56.882Z,0.500
2023-01-13T04:21:57.630Z,0.600
2023-01-13T04:22:57.175Z,0.500
2023-01-13T04:23:57.797Z,0.700
2023-01-13T04:24:57.423Z,0.700
2023-01-13T04:25:57.004Z,0.600
2023-01-13T04:26:57.558Z,0.500
2023-01-13T04:27:57.313Z,0.500
2023-01-13T04:28:57.071Z,0.800
2023-01-13T04:29:57.759Z,0.600
2023-01-13T04:30:57.478Z,0.700
2023-01-13T04:31:57.285Z,0.800
2023-01-13T04:32:56.833Z,0.600
2023-01-13T04:33:57.682Z,0.600
2023-01-13T04:34:57.232Z,0.700
2023-01-13T04:35:57.070Z,0.600
2023-01-13T04:36:57.692Z,0.700
2023-01-13T04:37:57.314Z,0.800
2023-01-13T04:38:56.900Z,0.600
2023-01-13T04:39:57.400Z,0.600
2023-01-13T04:40:56.963Z,0.700
2023-01-13T04:41:57.567Z,0.600
2023-01-13T04:42:57.052Z,0.600
2023-01-13T04:43:57.621Z,0.800
2023-01-13T04:44:57.161Z,0.800
2023-01-13T04:45:56.873Z,0.600
2023-01-13T04:46:57.803Z,0.700
2023-01-13T04:47:57.459Z,0.600
2023-01-13T04:48:57.036Z,0.600
2023-01-13T04:49:57.575Z,0.800
2023-01-13T04:50:57.366Z,0.700
2023-01-13T04:51:56.939Z,0.500
2023-01-13T04:52:57.494Z,0.500
2023-01-13T04:53:57.140Z,0.500
2023-01-13T04:54:57.706Z,0.500
2023-01-13T04:55:57.326Z,0.600
2023-01-13T04:56:56.837Z,0.800
2023-01-13T04:57:57.650Z,0.600
2023-01-13T04:58:57.230Z,0.500
2023-01-13T04:59:56.847Z,0.700
2023-01-13T05:00:57.486Z,0.700
2023-01-13T05:01:58.066Z,0.600
2023-01-13T05:02:57.638Z,0.700
2023-01-13T05:03:57.169Z,0.800
2023-01-13T05:04:57.938Z,0.500
2023-01-13T05:05:57.588Z,0.800
2023-01-13T05:06:57.355Z,0.900
2023-01-13T05:07:56.912Z,0.800
2023-01-13T05:08:57.556Z,0.800
2023-01-13T05:09:57.272Z,0.600
2023-01-13T05:10:57.975Z,0.700
2023-01-13T05:11:57.524Z,0.800
2023-01-13T05:12:57.235Z,0.700
2023-01-13T05:13:56.762Z,0.500
2023-01-13T05:14:57.322Z,0.700
2023-01-13T05:15:57.081Z,0.800
2023-01-13T05:16:57.731Z,0.500
2023-01-13T05:17:57.198Z,0.800
2023-01-13T05:18:56.891Z,0.700
2023-01-13T05:19:57.587Z,0.700
2023-01-13T05:20:57.170Z,0.700
2023-01-13T05:21:57.807Z,0.600
2023-01-13T05:22:57.447Z,0.900
2023-01-13T05:23:57.159Z,0.700
2023-01-13T05:24:57.854Z,0.700
2023-01-13T05:26:00.203Z,0.800
2023-01-13T05:26:57.926Z,0.800
2023-01-13T05:27:57.590Z,0.700
2023-01-13T05:28:57.263Z,0.500
2023-01-13T05:29:56.895Z,0.800
2023-01-13T05:30:57.522Z,0.700
2023-01-13T05:31:57.276Z,0.800
2023-01-13T05:32:56.901Z,0.700
2023-01-13T05:33:57.600Z,0.800
2023-01-13T05:34:57.312Z,0.900
2023-01-13T05:35:56.945Z,0.700
2023-01-13T05:36:57.457Z,1.100
2023-01-13T05:37:57.029Z,0.900
2023-01-13T05:38:57.731Z,0.900
2023-01-13T05:39:57.280Z,0.700
2023-01-13T05:40:57.455Z,1.000
2023-01-13T05:41:57.651Z,1.000
2023-01-13T05:42:57.214Z,0.800
2023-01-13T05:43:56.772Z,1.200
2023-01-13T05:44:57.479Z,0.900
2023-01-13T05:45:57.157Z,0.900
2023-01-13T05:46:57.935Z,0.700
2023-01-13T05:47:59.831Z,0.800
2023-01-13T05:48:57.362Z,0.900
2023-01-13T05:49:58.483Z,0.700
2023-01-13T05:50:57.092Z,1.000
2023-01-13T05:51:57.686Z,0.700
2023-01-13T05:52:57.199Z,0.500
2023-01-13T05:53:56.847Z,0.500
2023-01-13T05:54:57.706Z,0.700
2023-01-13T05:55:57.408Z,0.600
2023-01-13T05:56:57.091Z,0.900
2023-01-13T05:57:57.628Z,0.700
2023-01-13T05:58:57.210Z,0.900
2023-01-13T05:59:56.859Z,0.600
2023-01-13T06:00:58.312Z,1.000
2023-01-13T06:01:57.273Z,0.900
2023-01-13T06:02:56.930Z,1.000
2023-01-13T06:03:57.739Z,0.900
2023-01-13T06:04:57.572Z,0.900
2023-01-13T06:05:57.372Z,1.000
2023-01-13T06:06:56.964Z,0.700
2023-01-13T06:07:57.513Z,0.900
2023-01-13T06:08:59.027Z,0.700
2023-01-13T06:09:57.518Z,1.000
2023-01-13T06:10:57.155Z,0.700
2023-01-13T06:11:57.682Z,1.100
2023-01-13T06:12:57.201Z,1.100
2023-01-13T06:13:56.773Z,1.200
2023-01-13T06:14:57.310Z,1.200
2023-01-13T06:15:56.989Z,1.200
2023-01-13T06:16:57.667Z,1.400
2023-01-13T06:17:57.270Z,1.200
2023-01-13T06:18:56.824Z,1.300
2023-01-13T06:19:57.418Z,1.500
2023-01-13T06:21:57.470Z,1.300
2023-01-13T06:22:57.017Z,1.500
2023-01-13T06:23:57.590Z,1.300
2023-01-13T06:24:57.095Z,1.400
2023-01-13T06:25:56.793Z,1.300
2023-01-13T06:26:57.341Z,1.300
2023-01-13T06:27:57.000Z,1.400
2023-01-13T06:28:57.538Z,1.500
2023-01-13T06:29:57.022Z,1.400
2023-01-13T06:30:58.666Z,1.400
2023-01-13T06:31:57.415Z,1.400
2023-01-13T06:32:57.009Z,1.000
2023-01-13T06:33:57.578Z,1.400
2023-01-13T06:34:57.215Z,1.200
2023-01-13T06:35:56.784Z,1.300
2023-01-13T06:36:57.412Z,1.200
2023-01-13T06:37:56.890Z,1.200
2023-01-13T06:38:57.497Z,1.200
2023-01-13T06:39:57.153Z,1.400
2023-01-13T06:40:57.802Z,1.200
2023-01-13T06:41:57.351Z,1.100
2023-01-13T06:42:57.008Z,1.200
2023-01-13T06:43:57.620Z,1.200
2023-01-13T06:44:57.134Z,1.300
2023-01-13T06:45:57.650Z,1.300
2023-01-13T06:46:57.499Z,1.000
2023-01-13T06:47:57.006Z,1.300
2023-01-13T06:48:57.555Z,1.300
2023-01-13T06:49:57.108Z,1.100
2023-01-13T06:50:57.740Z,1.300
2023-01-13T06:51:57.328Z,1.200
2023-01-13T06:52:56.863Z,1.400
2023-01-13T06:53:57.374Z,1.300
2023-01-13T06:54:57.060Z,1.300
2023-01-13T06:55:57.619Z,1.200
2023-01-13T06:56:57.296Z,1.100
2023-01-13T06:57:56.909Z,1.200
2023-01-13T06:58:57.460Z,1.000
2023-01-13T06:59:57.006Z,1.100
2023-01-13T07:00:58.018Z,1.100
2023-01-13T07:01:58.387Z,1.300
2023-01-13T07:02:57.719Z,1.400
2023-01-13T07:03:57.458Z,1.200
2023-01-13T07:04:56.999Z,1.100
2023-01-13T07:05:56.716Z,1.400
2023-01-13T07:06:57.271Z,1.500
2023-01-13T07:07:56.808Z,1.500
2023-01-13T07:08:57.392Z,1.400
2023-01-13T07:09:56.968Z,1.400
2023-01-13T07:10:57.678Z,1.300
2023-01-13T07:11:57.184Z,1.300
2023-01-13T07:12:57.724Z,1.200
2023-01-13T07:13:57.294Z,1.400
2023-01-13T07:14:56.905Z,1.200
2023-01-13T07:15:57.541Z,1.200
2023-01-13T07:16:57.301Z,1.300
2023-01-13T07:17:56.891Z,1.300
2023-01-13T07:18:57.403Z,1.600
2023-01-13T07:19:56.979Z,1.400
2023-01-13T07:20:57.602Z,1.700
2023-01-13T07:21:57.167Z,1.300
2023-01-13T07:22:57.874Z,1.400
2023-01-13T07:23:57.534Z,1.400
2023-01-13T07:24:57.235Z,1.200
2023-01-13T07:25:56.944Z,1.100
2023-01-13T07:26:57.578Z,1.400
2023-01-13T07:27:57.130Z,1.400
2023-01-13T07:28:57.751Z,1.200
2023-01-13T07:29:57.278Z,1.400
2023-01-13T07:30:57.005Z,1.300
2023-01-13T07:31:57.897Z,1.100
2023-01-13T07:32:57.570Z,1.400
2023-01-13T07:33:57.160Z,1.100
2023-01-13T07:34:57.701Z,1.400
2023-01-13T07:35:57.489Z,1.200
2023-01-13T07:36:57.191Z,1.100
2023-01-13T07:37:57.717Z,1.200
2023-01-13T07:38:57.572Z,1.300
2023-01-13T07:39:57.271Z,1.200
2023-01-13T07:40:57.004Z,1.400
2023-01-13T07:41:57.698Z,1.300
2023-01-13T07:42:57.242Z,1.500
2023-01-13T07:43:56.840Z,1.500
2023-01-13T07:44:57.524Z,1.400
2023-01-13T07:45:57.325Z,1.500
2023-01-13T07:46:57.207Z,1.400
2023-01-13T07:47:56.840Z,1.800
2023-01-13T07:48:57.490Z,1.600
2023-01-13T07:49:57.082Z,1.500
2023-01-13T07:51:00.274Z,1.500
2023-01-13T07:51:57.016Z,1.200
2023-01-13T07:52:57.606Z,1.300
2023-01-13T07:53:57.233Z,1.500
2023-01-13T07:55:02.023Z,1.500
2023-01-13T07:55:57.833Z,1.600
2023-01-13T07:56:57.542Z,1.300
2023-01-13T07:57:57.116Z,1.400
2023-01-13T07:58:57.707Z,1.300
2023-01-13T07:59:57.365Z,1.300
2023-01-13T08:00:57.180Z,1.300
2023-01-13T08:01:57.388Z,1.500
2023-01-13T08:02:57.641Z,1.400
2023-01-13T08:03:57.289Z,1.300
2023-01-13T08:04:56.935Z,1.400
2023-01-13T08:05:57.743Z,1.100
2023-01-13T08:06:57.391Z,1.300
2023-01-13T08:07:57.003Z,1.500
2023-01-13T08:08:57.666Z,1.300
2023-01-13T08:09:57.280Z,1.200
2023-01-13T08:10:56.908Z,1.100
2023-01-13T08:11:57.686Z,0.900
2023-01-13T08:13:07.080Z,1.300
2023-01-13T08:13:57.655Z,1.100
2023-01-13T08:14:57.200Z,1.300
2023-01-13T08:15:57.077Z,1.300
2023-01-13T08:16:57.957Z,1.300
2023-01-13T08:17:57.791Z,1.200
2023-01-13T08:18:57.579Z,1.400
2023-01-13T08:19:57.220Z,1.300
2023-01-13T08:20:57.148Z,1.300
2023-01-13T08:21:57.789Z,1.500
2023-01-13T08:22:57.470Z,1.400
2023-01-13T08:23:57.200Z,1.200
2023-01-13T08:24:57.388Z,1.300
2023-01-13T08:25:57.159Z,1.600
2023-01-13T08:26:58.131Z,1.500
2023-01-13T08:27:57.858Z,1.400
2023-01-13T08:28:57.561Z,1.400
2023-01-13T08:29:57.250Z,1.400
2023-01-13T08:30:57.092Z,1.100
2023-01-13T08:31:57.079Z,1.300
2023-01-13T08:32:57.715Z,1.400
2023-01-13T08:33:57.392Z,1.500
2023-01-13T08:34:57.098Z,1.400
2023-01-13T08:35:57.864Z,1.300
2023-01-13T08:36:57.587Z,1.600
2023-01-13T08:37:57.281Z,1.500
2023-01-13T08:38:57.128Z,1.200
2023-01-13T08:39:57.778Z,1.400
2023-01-13T08:40:57.586Z,1.500
2023-01-13T08:41:57.184Z,1.600
2023-01-13T08:42:57.892Z,1.200
2023-01-13T08:43:57.617Z,1.400
2023-01-13T08:44:57.321Z,1.500
2023-01-13T08:45:57.320Z,1.400
2023-01-13T08:46:57.159Z,1.400
2023-01-13T08:47:57.850Z,1.100
2023-01-13T08:48:57.708Z,1.400
2023-01-13T08:49:57.735Z,1.300
2023-01-13T08:50:57.640Z,1.300
2023-01-13T08:51:57.213Z,1.600
2023-01-13T08:52:57.794Z,1.500
2023-01-13T08:53:57.343Z,1.500
2023-01-13T08:54:57.154Z,1.200
2023-01-13T08:55:57.855Z,1.200
2023-01-13T08:56:57.573Z,1.500
2023-01-13T08:58:10.203Z,1.300
2023-01-13T08:58:57.723Z,1.700
2023-01-13T08:59:57.339Z,1.500
2023-01-13T09:00:57.257Z,1.500
2023-01-13T09:01:58.050Z,1.600
2023-01-13T09:02:57.019Z,1.400
2023-01-13T09:03:57.726Z,1.600
2023-01-13T09:04:57.728Z,1.600
2023-01-13T09:05:57.376Z,1.600
2023-01-13T09:06:56.993Z,1.700
2023-01-13T09:07:57.708Z,1.400
2023-01-13T09:08:57.424Z,1.700
2023-01-13T09:09:57.137Z,1.800
2023-01-13T09:10:57.892Z,1.500
2023-01-13T09:11:57.632Z,1.800
2023-01-13T09:12:57.372Z,1.900
2023-01-13T09:13:57.095Z,1.800
2023-01-13T09:14:57.876Z,1.700
2023-01-13T09:15:57.957Z,2.000
2023-01-13T09:16:57.835Z,1.700
2023-01-13T09:17:57.605Z,1.600
2023-01-13T09:18:57.756Z,1.600
2023-01-13T09:19:57.346Z,1.900
2023-01-13T09:20:57.158Z,1.700
2023-01-13T09:21:57.859Z,1.800
2023-01-13T09:22:57.454Z,1.500
2023-01-13T09:23:57.135Z,1.600
2023-01-13T09:24:57.795Z,1.900
2023-01-13T09:25:57.491Z,1.800
2023-01-13T09:26:57.161Z,1.900
2023-01-13T09:27:57.881Z,1.800
2023-01-13T09:28:57.653Z,1.900
2023-01-13T09:29:57.264Z,1.700
2023-01-13T09:30:57.048Z,1.700
2023-01-13T09:32:00.417Z,2.400
2023-01-13T09:32:57.051Z,1.700
2023-01-13T09:33:57.745Z,2.100
2023-01-13T09:34:57.411Z,2.000
2023-01-13T09:35:57.096Z,1.900
2023-01-13T09:36:57.715Z,1.800
2023-01-13T09:37:57.379Z,2.300
2023-01-13T09:38:57.288Z,1.900
2023-01-13T09:39:56.983Z,1.200
2023-01-13T09:40:57.692Z,1.800
2023-01-13T09:41:57.460Z,1.400
2023-01-13T09:42:57.320Z,1.300
2023-01-13T09:43:57.143Z,1.100
2023-01-13T09:44:57.765Z,1.300
2023-01-13T09:45:57.477Z,1.400
2023-01-13T09:46:57.320Z,1.300
2023-01-13T09:47:56.987Z,1.200
2023-01-13T09:48:57.716Z,1.000
2023-01-13T09:49:57.362Z,1.300
2023-01-13T09:50:57.063Z,0.900
2023-01-13T09:51:58.050Z,1.400
2023-01-13T09:53:00.573Z,1.100
2023-01-13T09:53:57.171Z,1.000
2023-01-13T09:54:56.908Z,1.300
2023-01-13T09:55:57.521Z,1.200
2023-01-13T09:56:58.221Z,1.400
2023-01-13T09:57:57.120Z,1.100
2023-01-13T09:58:57.718Z,0.900
2023-01-13T09:59:57.307Z,0.700
2023-01-13T10:00:57.276Z,0.800
2023-01-13T10:01:57.101Z,0.900
2023-01-13T10:02:57.798Z,0.900
2023-01-13T10:03:57.742Z,0.900
2023-01-13T10:04:57.531Z,0.900
2023-01-13T10:05:57.404Z,0.900
2023-01-13T10:06:57.147Z,0.800
2023-01-13T10:07:59.193Z,1.300
2023-01-13T10:08:57.780Z,1.500
2023-01-13T10:09:57.416Z,1.200
2023-01-13T10:10:57.054Z,0.700
2023-01-13T10:11:57.700Z,0.800
2023-01-13T10:12:57.349Z,0.800
2023-01-13T10:13:57.263Z,1.000
2023-01-13T10:14:56.889Z,0.700
2023-01-13T10:15:57.554Z,0.900
2023-01-13T10:16:56.943Z,0.800
2023-01-13T10:17:57.666Z,1.000
2023-01-13T10:18:57.386Z,0.700
2023-01-13T10:19:57.055Z,0.800
2023-01-13T10:20:57.710Z,0.700
2023-01-13T10:21:57.319Z,0.800
2023-01-13T10:22:57.237Z,0.900
2023-01-13T10:23:56.947Z,0.800
2023-01-13T10:24:57.591Z,0.800
2023-01-13T10:25:57.211Z,1.100
2023-01-13T10:26:56.926Z,1.400
2023-01-13T10:27:57.647Z,1.000
2023-01-13T10:28:57.242Z,1.200
2023-01-13T10:29:56.906Z,0.600
2023-01-13T10:30:57.926Z,0.700
2023-01-13T10:31:57.628Z,0.700
2023-01-13T10:32:57.305Z,0.500
2023-01-13T10:33:56.972Z,0.700
2023-01-13T10:34:57.606Z,0.800
2023-01-13T10:35:57.208Z,0.700
2023-01-13T10:36:56.887Z,0.800
2023-01-13T10:37:57.568Z,0.800
2023-01-13T10:38:57.854Z,0.800
2023-01-13T10:39:57.601Z,0.700
2023-01-13T10:40:57.240Z,0.800
2023-01-13T10:41:56.932Z,1.000
2023-01-13T10:42:57.709Z,0.800
2023-01-13T10:43:57.419Z,0.800
2023-01-13T10:44:57.074Z,1.000
2023-01-13T10:45:57.837Z,1.200
2023-01-13T10:46:57.722Z,1.100
2023-01-13T10:47:57.396Z,0.900
2023-01-13T10:48:56.984Z,0.900
2023-01-13T10:49:57.611Z,1.100
2023-01-13T10:50:57.435Z,1.000
2023-01-13T10:51:57.167Z,1.000
2023-01-13T10:52:57.076Z,0.800
2023-01-13T10:53:57.684Z,1.100
2023-01-13T10:54:57.369Z,0.900
2023-01-13T10:55:57.222Z,1.100
2023-01-13T10:56:56.982Z,0.900
2023-01-13T10:57:57.700Z,1.000
2023-01-13T10:58:57.390Z,0.800
2023-01-13T10:59:57.692Z,1.100
2023-01-13T11:00:57.693Z,1.000
2023-01-13T11:01:58.064Z,1.000
2023-01-13T11:03:00.868Z,0.700
2023-01-13T11:03:57.779Z,0.600
2023-01-13T11:04:57.542Z,0.800
2023-01-13T11:05:57.274Z,0.700
2023-01-13T11:06:56.943Z,0.700
2023-01-13T11:07:57.611Z,0.800
2023-01-13T11:08:57.292Z,0.900
2023-01-13T11:09:57.008Z,0.900
2023-01-13T11:10:57.703Z,0.800
2023-01-13T11:11:57.445Z,0.900
2023-01-13T11:12:57.183Z,0.800
2023-01-13T11:13:57.809Z,0.900
2023-01-13T11:14:57.501Z,0.900
2023-01-13T11:15:57.249Z,0.600
2023-01-13T11:17:06.837Z,0.800
2023-01-13T11:17:57.550Z,0.700
2023-01-13T11:18:57.219Z,1.000
2023-01-13T11:19:56.951Z,0.800
2023-01-13T11:20:57.686Z,0.800
2023-01-13T11:21:57.506Z,0.700
2023-01-13T11:22:57.322Z,0.700
2023-01-13T11:23:57.074Z,0.900
2023-01-13T11:24:57.730Z,1.000
2023-01-13T11:25:57.413Z,1.000
2023-01-13T11:26:57.146Z,1.100
2023-01-13T11:27:57.962Z,1.100
2023-01-13T11:28:57.600Z,0.700
2023-01-13T11:29:57.362Z,0.900
2023-01-13T11:30:57.079Z,0.900
2023-01-13T11:31:58.016Z,0.800
2023-01-13T11:32:57.646Z,1.000
2023-01-13T11:33:57.296Z,0.600
2023-01-13T11:34:56.916Z,1.000
2023-01-13T11:35:57.801Z,0.800
2023-01-13T11:36:57.453Z,0.700
2023-01-13T11:37:57.016Z,1.000
2023-01-13T11:38:57.654Z,0.800
2023-01-13T11:39:57.404Z,0.900
2023-01-13T11:40:57.354Z,1.000
2023-01-13T11:41:57.043Z,0.700
2023-01-13T11:42:57.758Z,0.700
2023-01-13T11:43:57.415Z,1.100
2023-01-13T11:44:57.072Z,1.000
2023-01-13T11:45:57.232Z,0.800
2023-01-13T11:46:57.083Z,0.800
2023-01-13T11:47:58.010Z,0.700
2023-01-13T11:48:57.670Z,0.800
2023-01-13T11:49:57.458Z,0.900
2023-01-13T11:50:57.031Z,0.900
2023-01-13T11:51:57.839Z,0.900
2023-01-13T11:52:57.643Z,0.800
2023-01-13T11:53:57.399Z,1.000
2023-01-13T11:54:57.228Z,0.800
2023-01-13T11:55:56.932Z,1.000
2023-01-13T11:56:57.773Z,0.700
2023-01-13T11:57:57.669Z,0.700
2023-01-13T11:59:05.736Z,0.900
2023-01-13T11:59:57.417Z,0.800
2023-01-13T12:00:57.229Z,1.000
2023-01-13T12:01:57.587Z,0.800
2023-01-13T12:02:57.529Z,0.900
2023-01-13T12:03:57.494Z,0.900
2023-01-13T12:04:57.119Z,1.300
2023-01-13T12:05:57.736Z,1.100
2023-01-13T12:06:57.531Z,0.900
2023-01-13T12:07:57.375Z,1.100
2023-01-13T12:08:57.391Z,1.000
2023-01-13T12:09:57.226Z,0.900
2023-01-13T12:10:57.023Z,1.000
2023-01-13T12:11:57.845Z,1.100
2023-01-13T12:12:59.460Z,1.100
2023-01-13T12:13:58.038Z,1.000
2023-01-13T12:14:57.997Z,0.800
2023-01-13T12:15:57.930Z,1.300
2023-01-13T12:16:59.800Z,1.000
2023-01-13T12:17:57.921Z,1.000
2023-01-13T12:18:57.647Z,1.000
2023-01-13T12:19:57.226Z,1.200
2023-01-13T12:20:57.098Z,1.200
2023-01-13T12:21:57.696Z,1.000
2023-01-13T12:22:57.375Z,1.100
2023-01-13T12:23:56.953Z,1.200
2023-01-13T12:24:57.649Z,1.100
2023-01-13T12:25:57.403Z,1.100
2023-01-13T12:26:57.216Z,0.900
2023-01-13T12:27:56.971Z,1.300
2023-01-13T12:28:57.809Z,1.100
2023-01-13T12:29:57.623Z,1.000
2023-01-13T12:30:58.736Z,1.000
2023-01-13T12:31:57.824Z,1.000
2023-01-13T12:32:57.505Z,0.900
2023-01-13T12:33:57.132Z,1.000
2023-01-13T12:34:57.775Z,1.000
2023-01-13T12:35:58.864Z,0.900
2023-01-13T12:36:57.957Z,1.000
2023-01-13T12:37:57.560Z,1.100
2023-01-13T12:38:57.298Z,1.400
2023-01-13T12:39:56.950Z,1.400
2023-01-13T12:40:57.703Z,1.400
2023-01-13T12:41:57.359Z,1.200
2023-01-13T12:42:57.016Z,1.100
2023-01-13T12:43:57.675Z,1.100
2023-01-13T12:44:57.334Z,1.300
2023-01-13T12:45:57.216Z,1.200
2023-01-13T12:46:57.052Z,1.400
2023-01-13T12:47:57.742Z,1.000
2023-01-13T12:48:57.413Z,0.800
2023-01-13T12:49:57.308Z,1.100
2023-01-13T12:50:57.138Z,1.100
2023-01-13T12:51:57.883Z,1.200
2023-01-13T12:52:57.526Z,1.000
2023-01-13T12:53:57.236Z,1.200